EDMA/AGB METAR and TAF weather

Enter ICAO airport designator
Station Type Date Time Source
EDMA METAR 2021/03/06 04:20 UTC NOAA

EDMA 060420Z AUTO 06004KT 9999 // NCD M05/M07 Q1029


Station Type Date Time Source
EDMA Decoded METAR 2021/03/06 04:20 UTC NOAA

Augsburg, Germany (EDMA) 48-26N 010-56E 463M
Mar 05, 2021 - 11:20 PM EST / 2021.03.06 0420 UTC
Wind: from the ENE (060 degrees) at 5 MPH (4 KT):0
Visibility: greater than 7 mile(s):0
Temperature: 23 F (-5 C)
Windchill: 15 F (-9 C):1
Dew Point: 19 F (-7 C)
Relative Humidity: 85%
Pressure (altimeter): 30.39 in. Hg (1029 hPa)
ob: EDMA 060420Z AUTO 06004KT 9999 // NCD M05/M07 Q1029
cycle: 4

Station Type Date Time Source
EDMA TAF 2010/02/22 13:50 UTC NOAA

METAR EDMA 221350Z 23006KT CAVOK 10/02 Q0996

Example: see airport list